Time;durP1;ratioP1;P1;durP2;ratioP2;P2;SDS_P1;SDS_P2;PMS_P1;PMS_P2;Temp;Humidity;BMP_temperature;BMP_pressure;BME280_temperature;BME280_humidity;BME280_pressure;Samples;Min_cycle;Max_cycle;Signal;HPM_P1;HPM_P2
2021/09/15 00:00:45;;;;;;;;;;;;;;;21.92;50.80;101878.88;2083679;28;1044;-59
2021/09/15 00:01:45;;;;;;;;;;;;;;;21.91;51.20;101878.00;2083771;28;977;-60
2021/09/15 00:02:45;;;;;;;;;;;;;;;21.90;51.64;101873.53;2083677;28;747;-59
2021/09/15 00:03:45;;;;;;;;;;;;;;;21.92;51.59;101871.69;2083360;28;910;-60
2021/09/15 00:04:46;;;;;;;;;;;;;;;21.94;50.24;101866.25;2083668;28;1037;-60
2021/09/15 00:05:46;;;;;;;;;;;;;;;21.98;51.31;101867.09;2083671;28;1001;-60
2021/09/15 00:06:46;;;;;;;;;;;;;;;21.98;50.74;101862.56;2083537;28;778;-60
2021/09/15 00:07:46;;;;;;;;;;;;;;;22.00;51.49;101860.72;2083769;28;892;-59
2021/09/15 00:08:46;;;;;;;;;;;;;;;22.04;50.48;101866.94;2083692;28;1378;-60
2021/09/15 00:09:46;;;;;;;;;;;;;;;22.04;51.20;101866.94;2083636;28;794;-60
2021/09/15 00:10:47;;;;;;;;;;;;;;;22.04;50.26;101872.34;2083675;28;859;-60
2021/09/15 00:11:47;;;;;;;;;;;;;;;22.02;50.96;101866.09;2083658;28;855;-60
2021/09/15 00:12:47;;;;;;;;;;;;;;;22.01;51.06;101864.31;2083587;28;1041;-60
2021/09/15 00:13:47;;;;;;;;;;;;;;;22.02;51.05;101864.28;2083658;28;1097;-60
2021/09/15 00:14:47;;;;;;;;;;;;;;;22.00;51.68;101873.34;2083512;28;855;-60
2021/09/15 00:15:48;;;;;;;;;;;;;;;21.97;51.24;101866.19;2083567;28;1906;-60
2021/09/15 00:16:48;;;;;;;;;;;;;;;21.97;51.37;101868.00;2083622;28;977;-60
2021/09/15 00:17:48;;;;;;;;;;;;;;;21.99;51.90;101871.56;2083632;28;1330;-60
2021/09/15 00:18:48;;;;;;;;;;;;;;;21.99;51.99;101866.16;2083621;28;1286;-60
2021/09/15 00:19:48;;;;;;;;;;;;;;;22.00;51.60;101865.25;2083526;28;973;-60
2021/09/15 00:20:49;;;;;;;;;;;;;;;22.02;50.67;101872.38;2083577;28;783;-60
2021/09/15 00:21:49;;;;;;;;;;;;;;;22.00;51.68;101858.03;2083604;28;913;-60
2021/09/15 00:22:49;;;;;;;;;;;;;;;21.99;52.07;101863.47;2082506;28;1250;-60
2021/09/15 00:23:49;;;;;;;;;;;;;;;21.97;51.15;101868.00;2075490;28;965;-60
2021/09/15 00:24:49;;;;;;;;;;;;;;;21.94;51.34;101862.69;2075365;28;996;-60
2021/09/15 00:25:49;;;;;;;;;;;;;;;21.93;50.81;101859.09;2075438;28;898;-60
2021/09/15 00:26:50;;;;;;;;;;;;;;;22.00;51.24;101866.13;2075294;28;846;-60
2021/09/15 00:27:50;;;;;;;;;;;;;;;22.03;51.64;101866.03;2075412;28;834;-60
2021/09/15 00:28:50;;;;;;;;;;;;;;;22.04;49.98;101866.94;2075281;28;996;-60
2021/09/15 00:29:51;;;;;;;;;;;;;;;21.99;50.57;101867.03;2075429;28;969;-60
2021/09/15 00:30:51;;;;;;;;;;;;;;;22.00;50.73;101868.81;2075016;28;1052;-60
2021/09/15 00:31:51;;;;;;;;;;;;;;;22.01;51.15;101872.41;2075360;28;977;-60
2021/09/15 00:32:51;;;;;;;;;;;;;;;21.98;49.91;101869.78;2075196;28;981;-60
2021/09/15 00:33:52;;;;;;;;;;;;;;;21.95;51.02;101877.94;2075184;28;1414;-59
2021/09/15 00:34:52;;;;;;;;;;;;;;;21.91;51.14;101872.63;2075306;28;886;-60
2021/09/15 00:35:52;;;;;;;;;;;;;;;21.91;51.06;101871.72;2075178;28;1911;-60
2021/09/15 00:36:52;;;;;;;;;;;;;;;21.89;51.08;101873.56;2075352;28;906;-60
2021/09/15 00:37:52;;;;;;;;;;;;;;;21.91;49.91;101875.31;2075299;28;985;-60
2021/09/15 00:38:53;;;;;;;;;;;;;;;21.88;50.78;101875.38;2075169;28;997;-60
2021/09/15 00:39:53;;;;;;;;;;;;;;;21.86;50.51;101876.31;2075364;28;815;-60
2021/09/15 00:40:54;;;;;;;;;;;;;;;21.94;50.75;101882.44;2075238;28;1024;-60
2021/09/15 00:41:55;;;;;;;;;;;;;;;21.95;51.32;101880.66;2074847;28;792;-60
2021/09/15 00:42:55;;;;;;;;;;;;;;;21.94;50.88;101882.44;2075272;28;783;-60
2021/09/15 00:43:56;;;;;;;;;;;;;;;21.99;50.40;101883.22;2075318;28;946;-60
2021/09/15 00:44:57;;;;;;;;;;;;;;;21.95;52.30;101886.03;2066491;28;1396;-60
2021/09/15 00:45:57;;;;;;;;;;;;;;;21.87;51.40;101881.69;2066640;28;883;-60
2021/09/15 00:46:57;;;;;;;;;;;;;;;21.91;52.05;101879.81;2074895;28;1143;-60
2021/09/15 00:47:57;;;;;;;;;;;;;;;21.88;51.04;101880.78;2075131;28;1016;-60
2021/09/15 00:48:57;;;;;;;;;;;;;;;21.90;50.96;101878.94;2075278;28;899;-60
2021/09/15 00:49:58;;;;;;;;;;;;;;;21.87;51.49;101878.09;2075073;28;997;-60
2021/09/15 00:50:58;;;;;;;;;;;;;;;21.89;52.71;101879.88;2075183;28;981;-60
2021/09/15 00:51:58;;;;;;;;;;;;;;;21.94;51.58;101879.75;2075241;28;1005;-60
2021/09/15 00:53:00;;;;;;;;;;;;;;;21.96;51.16;101879.72;2075069;28;1021;-60
2021/09/15 00:54:00;;;;;;;;;;;;;;;21.92;51.95;101878.88;2075282;28;874;-60
2021/09/15 00:55:00;;;;;;;;;;;;;;;21.90;51.28;101880.72;2075184;28;997;-59
2021/09/15 00:56:00;;;;;;;;;;;;;;;21.91;51.97;101878.00;2075113;28;1886;-60
2021/09/15 00:57:00;;;;;;;;;;;;;;;21.96;51.20;101885.13;2075147;28;799;-59
2021/09/15 00:58:00;;;;;;;;;;;;;;;21.89;52.16;101882.56;2075036;28;997;-60
2021/09/15 00:59:01;;;;;;;;;;;;;;;21.89;52.28;101882.56;2074989;28;801;-60
2021/09/15 01:00:02;;;;;;;;;;;;;;;21.86;51.68;101877.22;2066500;28;689;-60
2021/09/15 01:01:02;;;;;;;;;;;;;;;21.96;51.42;101885.13;2066524;28;883;-60
2021/09/15 01:02:02;;;;;;;;;;;;;;;21.96;52.11;101877.91;2075148;28;863;-60
2021/09/15 01:03:02;;;;;;;;;;;;;;;21.96;51.09;101882.41;2075106;28;791;-60
2021/09/15 01:04:03;;;;;;;;;;;;;;;22.01;51.64;101884.06;2075012;28;993;-60
2021/09/15 01:05:04;;;;;;;;;;;;;;;21.95;52.44;101875.25;2075152;28;941;-60
2021/09/15 01:06:05;;;;;;;;;;;;;;;21.97;51.71;101878.81;2075102;28;795;-60
2021/09/15 01:07:05;;;;;;;;;;;;;;;21.90;51.76;101881.63;2075091;28;989;-60
2021/09/15 01:08:06;;;;;;;;;;;;;;;21.90;52.11;101883.44;2075164;28;1130;-60
2021/09/15 01:09:07;;;;;;;;;;;;;;;21.88;51.90;101886.19;2074977;28;1060;-60
2021/09/15 01:10:08;;;;;;;;;;;;;;;22.01;51.50;101875.13;2075150;28;776;-60
2021/09/15 01:11:09;;;;;;;;;;;;;;;22.04;51.12;101885.84;2075159;28;985;-60
2021/09/15 01:12:13;;;;;;;;;;;;;;;21.95;51.38;101888.75;2075152;28;1072;-60
2021/09/15 01:13:13;;;;;;;;;;;;;;;21.92;51.87;101886.97;2075091;28;827;-60
2021/09/15 01:14:14;;;;;;;;;;;;;;;21.83;52.76;101887.19;2074765;28;827;-60
2021/09/15 01:15:14;;;;;;;;;;;;;;;21.88;52.07;101882.56;2074984;28;1955;-60
2021/09/15 01:16:14;;;;;;;;;;;;;;;21.81;52.54;101886.31;2075020;28;1376;-60
2021/09/15 01:17:14;;;;;;;;;;;;;;;21.86;51.94;101885.31;2075037;28;1068;-60
2021/09/15 01:18:18;;;;;;;;;;;;;;;21.91;52.53;101886.09;2075086;28;1041;-60
2021/09/15 01:19:21;;;;;;;;;;;;;;;21.86;52.25;101885.31;2075004;28;791;-60
2021/09/15 01:20:21;;;;;;;;;;;;;;;21.86;52.53;101887.13;2074986;28;780;-60
2021/09/15 01:21:21;;;;;;;;;;;;;;;21.90;52.53;101887.03;2075092;28;847;-60
2021/09/15 01:22:22;;;;;;;;;;;;;;;21.87;52.34;101892.50;2074914;28;836;-60
2021/09/15 01:23:22;;;;;;;;;;;;;;;21.90;52.87;101886.13;2080124;28;1471;-60
2021/09/15 01:24:24;;;;;;;;;;;;;;;21.82;52.73;101883.63;2083180;28;827;-60
2021/09/15 01:25:24;;;;;;;;;;;;;;;21.86;52.27;101889.81;2083018;28;859;-60
2021/09/15 01:26:31;;;;;;;;;;;;;;;21.84;51.79;101888.97;2082734;28;791;-60
2021/09/15 01:27:32;;;;;;;;;;;;;;;21.84;52.31;101889.88;2083078;28;1367;-60
2021/09/15 01:28:32;;;;;;;;;;;;;;;21.86;52.43;101887.13;2083187;28;1036;-60
2021/09/15 01:29:33;;;;;;;;;;;;;;;21.86;52.17;101889.81;2082882;28;1085;-60
2021/09/15 01:30:33;;;;;;;;;;;;;;;21.81;52.53;101881.84;2083238;28;915;-60
2021/09/15 01:31:33;;;;;;;;;;;;;;;21.80;52.88;101887.25;2083208;28;1029;-60
2021/09/15 01:32:33;;;;;;;;;;;;;;;21.82;53.06;101886.31;2083135;28;1040;-60
2021/09/15 01:33:33;;;;;;;;;;;;;;;21.76;52.21;101881.06;2082933;28;1352;-60
2021/09/15 01:34:35;;;;;;;;;;;;;;;21.83;52.55;101885.38;2083191;28;934;-60
2021/09/15 01:35:35;;;;;;;;;;;;;;;21.81;52.19;101889.94;2083077;28;1964;-60
2021/09/15 01:36:35;;;;;;;;;;;;;;;21.82;51.82;101886.31;2083100;28;985;-60
2021/09/15 01:37:35;;;;;;;;;;;;;;;21.86;51.70;101881.72;2083266;28;772;-60
2021/09/15 01:38:36;;;;;;;;;;;;;;;21.83;52.11;101881.78;2083098;28;934;-60
2021/09/15 01:39:36;;;;;;;;;;;;;;;21.85;51.57;101883.53;2083199;28;855;-60
2021/09/15 01:40:36;;;;;;;;;;;;;;;21.79;52.18;101888.16;2083022;28;980;-61
2021/09/15 01:41:37;;;;;;;;;;;;;;;21.79;51.76;101882.78;2083127;28;806;-60
2021/09/15 01:42:37;;;;;;;;;;;;;;;21.80;52.84;101882.75;2083113;28;989;-61
2021/09/15 01:43:37;;;;;;;;;;;;;;;21.74;51.73;101883.78;2083070;28;913;-60
2021/09/15 01:44:41;;;;;;;;;;;;;;;21.73;51.98;101879.31;2083048;28;970;-60
2021/09/15 01:45:41;;;;;;;;;;;;;;;21.73;52.30;101881.13;2083215;28;767;-60
2021/09/15 01:46:42;;;;;;;;;;;;;;;21.80;52.34;101873.75;2083083;28;819;-61
2021/09/15 01:47:42;;;;;;;;;;;;;;;21.75;52.06;101874.78;2083163;28;1016;-60
2021/09/15 01:48:42;;;;;;;;;;;;;;;21.77;52.07;101874.72;2083058;28;1028;-60
2021/09/15 01:49:43;;;;;;;;;;;;;;;21.71;52.53;101885.66;2082736;28;1384;-60
2021/09/15 01:50:43;;;;;;;;;;;;;;;21.74;51.98;101888.28;2074942;28;894;-60
2021/09/15 01:51:43;;;;;;;;;;;;;;;21.69;52.50;101891.09;2074871;28;1028;-60
2021/09/15 01:52:43;;;;;;;;;;;;;;;21.66;52.30;101887.56;2074891;28;1218;-60
2021/09/15 01:53:43;;;;;;;;;;;;;;;21.69;52.70;101877.63;2074990;28;1186;-60
2021/09/15 01:54:44;;;;;;;;;;;;;;;21.77;51.03;101881.03;2074682;28;811;-60
2021/09/15 01:55:44;;;;;;;;;;;;;;;21.72;51.58;101884.72;2074777;28;1890;-60
2021/09/15 01:56:44;;;;;;;;;;;;;;;21.79;51.99;101877.38;2074876;28;1044;-60
2021/09/15 01:57:45;;;;;;;;;;;;;;;21.77;51.32;101870.25;2074961;28;974;-60
2021/09/15 01:58:45;;;;;;;;;;;;;;;21.77;52.35;101877.44;2074833;28;871;-60
2021/09/15 01:59:45;;;;;;;;;;;;;;;21.73;51.67;101870.31;2074919;28;1025;-60
2021/09/15 02:00:45;;;;;;;;;;;;;;;21.73;51.79;101868.53;2074787;28;795;-60
2021/09/15 02:01:45;;;;;;;;;;;;;;;21.76;51.04;101875.66;2074944;28;1254;-60
2021/09/15 02:02:47;;;;;;;;;;;;;;;21.72;51.94;101869.47;2074790;28;970;-60
2021/09/15 02:03:48;;;;;;;;;;;;;;;21.67;51.47;101868.66;2074792;28;890;-60
2021/09/15 02:04:48;;;;;;;;;;;;;;;21.70;51.93;101868.59;2074845;28;977;-60
2021/09/15 02:05:48;;;;;;;;;;;;;;;21.67;52.17;101870.47;2074639;28;1535;-60
2021/09/15 02:06:48;;;;;;;;;;;;;;;21.68;52.00;101873.13;2074871;28;815;-60
2021/09/15 02:07:48;;;;;;;;;;;;;;;21.76;51.83;101867.56;2074936;28;1044;-60
2021/09/15 02:08:49;;;;;;;;;;;;;;;21.77;52.28;101875.63;2074822;28;764;-60
2021/09/15 02:09:49;;;;;;;;;;;;;;;21.74;52.31;101877.50;2074905;28;973;-61
2021/09/15 02:10:49;;;;;;;;;;;;;;;21.74;52.23;101882.88;2074917;28;784;-60
2021/09/15 02:11:49;;;;;;;;;;;;;;;21.72;52.46;101877.53;2073831;28;1636;-60
2021/09/15 02:12:49;;;;;;;;;;;;;;;21.75;51.99;101881.97;2074300;28;1510;-60
2021/09/15 02:13:50;;;;;;;;;;;;;;;21.70;52.40;101892.88;2083034;28;1403;-60
2021/09/15 02:14:50;;;;;;;;;;;;;;;21.71;52.40;101889.25;2083040;28;794;-60
2021/09/15 02:15:50;;;;;;;;;;;;;;;21.74;51.40;101891.88;2083017;28;1975;-60
2021/09/15 02:16:50;;;;;;;;;;;;;;;21.83;51.71;101882.69;2074007;28;953;-60
2021/09/15 02:17:50;;;;;;;;;;;;;;;21.76;51.71;101879.25;2074283;28;857;-61
2021/09/15 02:18:51;;;;;;;;;;;;;;;21.82;51.96;101886.31;2083003;28;969;-60
2021/09/15 02:19:51;;;;;;;;;;;;;;;21.72;52.15;101895.53;2082909;28;834;-61
2021/09/15 02:20:51;;;;;;;;;;;;;;;21.72;51.80;101901.81;2082947;28;1044;-60
2021/09/15 02:21:51;;;;;;;;;;;;;;;21.67;52.12;101895.63;2082957;28;756;-60
2021/09/15 02:22:51;;;;;;;;;;;;;;;21.64;52.87;101893.00;2082642;28;1432;-60
2021/09/15 02:23:51;;;;;;;;;;;;;;;21.67;52.22;101900.13;2082982;28;871;-61
2021/09/15 02:24:52;;;;;;;;;;;;;;;21.70;51.76;101895.56;2082933;28;986;-60
2021/09/15 02:25:52;;;;;;;;;;;;;;;21.74;52.71;101897.28;2082927;28;989;-60
2021/09/15 02:26:52;;;;;;;;;;;;;;;21.67;52.65;101902.81;2082872;28;827;-60
2021/09/15 02:27:52;;;;;;;;;;;;;;;21.67;52.45;101906.41;2082507;28;831;-60
2021/09/15 02:28:52;;;;;;;;;;;;;;;21.64;52.77;101902.88;2082902;28;768;-60
2021/09/15 02:29:52;;;;;;;;;;;;;;;21.69;52.83;101901.88;2083057;28;1101;-61
2021/09/15 02:30:52;;;;;;;;;;;;;;;21.67;52.45;101908.22;2082949;28;945;-60
2021/09/15 02:31:53;;;;;;;;;;;;;;;21.67;51.93;101910.91;2077631;28;1295;-61
2021/09/15 02:32:53;;;;;;;;;;;;;;;21.67;52.56;101906.41;2074651;28;1012;-60
2021/09/15 02:33:53;;;;;;;;;;;;;;;21.71;51.79;101908.13;2074673;28;1346;-60
2021/09/15 02:34:53;;;;;;;;;;;;;;;21.77;51.46;101899.00;2074676;28;947;-60
2021/09/15 02:35:54;;;;;;;;;;;;;;;21.79;51.11;101909.75;2074616;28;1910;-60
2021/09/15 02:36:54;;;;;;;;;;;;;;;21.70;52.33;101903.66;2074770;28;777;-61
2021/09/15 02:37:54;;;;;;;;;;;;;;;21.64;52.80;101908.28;2074856;28;847;-61
2021/09/15 02:38:54;;;;;;;;;;;;;;;21.68;52.79;101900.09;2074656;28;830;-61
2021/09/15 02:39:54;;;;;;;;;;;;;;;21.74;51.55;101907.16;2074824;28;839;-60
2021/09/15 02:40:54;;;;;;;;;;;;;;;21.70;51.61;101898.25;2074696;28;1414;-61
2021/09/15 02:41:55;;;;;;;;;;;;;;;21.72;51.44;101899.13;2076171;28;994;-61
2021/09/15 02:42:55;;;;;;;;;;;;;;;21.71;52.78;101899.13;2076214;28;777;-61
2021/09/15 02:43:55;;;;;;;;;;;;;;;21.76;51.76;101902.63;2075978;28;986;-61
2021/09/15 02:44:55;;;;;;;;;;;;;;;21.72;51.68;101893.72;2076183;28;961;-61
2021/09/15 02:45:55;;;;;;;;;;;;;;;21.73;51.07;101898.19;2076255;28;859;-61
2021/09/15 02:46:55;;;;;;;;;;;;;;;21.73;52.27;101892.81;2075868;28;728;-61
2021/09/15 02:47:55;;;;;;;;;;;;;;;21.80;50.98;101898.94;2076204;28;822;-60
2021/09/15 02:48:56;;;;;;;;;;;;;;;21.76;51.59;101898.13;2076135;28;1040;-61
2021/09/15 02:49:56;;;;;;;;;;;;;;;21.71;51.73;101891.94;2075900;28;1005;-61
2021/09/15 02:50:56;;;;;;;;;;;;;;;21.66;52.05;101899.25;2076087;28;997;-61
2021/09/15 02:51:56;;;;;;;;;;;;;;;21.68;51.58;101892.00;2076093;28;802;-61
2021/09/15 02:52:57;;;;;;;;;;;;;;;21.67;51.53;101846.19;2076002;28;974;-61
2021/09/15 02:53:57;;;;;;;;;;;;;;;21.71;51.73;101839.81;2076149;28;812;-61
2021/09/15 02:54:57;;;;;;;;;;;;;;;21.71;51.60;101843.41;2076056;28;934;-62
2021/09/15 02:55:57;;;;;;;;;;;;;;;21.75;52.31;101839.72;2076019;28;1959;-61
2021/09/15 02:56:57;;;;;;;;;;;;;;;21.76;51.68;101837.91;2076083;28;771;-62
2021/09/15 02:57:58;;;;;;;;;;;;;;;21.73;52.22;101822.69;2076067;28;973;-61
2021/09/15 02:58:58;;;;;;;;;;;;;;;21.68;52.66;101834.47;2076001;28;986;-62
2021/09/15 02:59:58;;;;;;;;;;;;;;;21.67;53.32;101932.47;2076026;28;776;-62
2021/09/15 03:00:58;;;;;;;;;;;;;;;21.61;54.07;101914.59;2076009;28;959;-62
2021/09/15 03:01:58;;;;;;;;;;;;;;;21.69;53.00;101895.59;2076106;28;827;-61
2021/09/15 03:02:58;;;;;;;;;;;;;;;21.58;55.88;101896.66;2075766;28;780;-61
2021/09/15 03:03:58;;;;;;;;;;;;;;;21.56;55.83;101895.81;2076081;28;803;-61
2021/09/15 03:04:59;;;;;;;;;;;;;;;21.61;53.36;101893.03;2075967;28;1005;-62
2021/09/15 03:05:59;;;;;;;;;;;;;;;21.69;53.99;101900.97;2076035;28;969;-62
2021/09/15 03:06:59;;;;;;;;;;;;;;;21.72;53.92;101896.41;2076124;28;723;-63
2021/09/15 03:07:59;;;;;;;;;;;;;;;21.79;51.84;101896.25;2075870;28;776;-62
2021/09/15 03:08:59;;;;;;;;;;;;;;;21.82;52.59;101901.59;2075725;28;1056;-62
2021/09/15 03:10:00;;;;;;;;;;;;;;;21.77;52.29;101905.31;2076067;28;703;-61
2021/09/15 03:11:00;;;;;;;;;;;;;;;21.73;52.36;101902.69;2075869;28;763;-61
2021/09/15 03:12:00;;;;;;;;;;;;;;;21.77;52.37;101889.13;2076005;28;1006;-62
2021/09/15 03:13:00;;;;;;;;;;;;;;;21.82;51.77;101870.13;2075951;28;862;-61
2021/09/15 03:14:00;;;;;;;;;;;;;;;21.84;52.14;101878.16;2075883;28;1036;-61
2021/09/15 03:15:00;;;;;;;;;;;;;;;21.81;53.34;101878.25;2075962;28;867;-61
2021/09/15 03:16:00;;;;;;;;;;;;;;;21.90;52.10;101872.63;2075950;28;1886;-61
2021/09/15 03:17:01;;;;;;;;;;;;;;;21.83;52.04;101871.91;2075566;28;969;-61
2021/09/15 03:18:01;;;;;;;;;;;;;;;21.82;51.36;101871.91;2075924;28;1051;-61
2021/09/15 03:19:01;;;;;;;;;;;;;;;21.74;52.69;101880.19;2075963;28;915;-61
2021/09/15 03:20:03;;;;;;;;;;;;;;;21.75;51.47;101874.78;2075533;28;796;-61
2021/09/15 03:21:03;;;;;;;;;;;;;;;21.80;52.50;101871.97;2075884;28;1123;-61
2021/09/15 03:22:03;;;;;;;;;;;;;;;21.83;51.89;101876.41;2075980;28;922;-61
2021/09/15 03:23:04;;;;;;;;;;;;;;;21.79;52.44;101880.06;2077902;28;1187;-61
2021/09/15 03:24:04;;;;;;;;;;;;;;;21.78;52.29;101863.03;2084153;28;861;-61
2021/09/15 03:25:04;;;;;;;;;;;;;;;21.82;51.81;101866.53;2084009;28;997;-61
2021/09/15 03:26:04;;;;;;;;;;;;;;;21.78;51.78;101873.81;2083777;28;1100;-61
2021/09/15 03:27:05;;;;;;;;;;;;;;;21.77;52.09;101869.34;2084046;28;827;-61
2021/09/15 03:28:05;;;;;;;;;;;;;;;21.80;52.36;101884.56;2084116;28;974;-61
2021/09/15 03:29:05;;;;;;;;;;;;;;;21.70;52.38;101876.69;2083988;28;978;-61
2021/09/15 03:30:06;;;;;;;;;;;;;;;21.74;52.49;101886.50;2083991;28;1041;-61
2021/09/15 03:31:06;;;;;;;;;;;;;;;21.70;52.47;101882.09;2084028;28;775;-61
2021/09/15 03:32:06;;;;;;;;;;;;;;;21.67;53.24;101890.25;2083977;28;950;-61
2021/09/15 03:33:06;;;;;;;;;;;;;;;21.77;52.18;101886.44;2083579;28;1320;-61
2021/09/15 03:34:06;;;;;;;;;;;;;;;21.74;52.76;101886.50;2083992;28;764;-61
2021/09/15 03:35:07;;;;;;;;;;;;;;;21.73;51.75;101886.50;2083970;28;898;-61
2021/09/15 03:36:07;;;;;;;;;;;;;;;21.70;52.49;101882.09;2083876;28;1971;-61
2021/09/15 03:37:07;;;;;;;;;;;;;;;21.75;51.70;101881.97;2083931;28;943;-61
2021/09/15 03:38:07;;;;;;;;;;;;;;;21.67;52.93;101890.25;2083970;28;781;-61
2021/09/15 03:39:08;;;;;;;;;;;;;;;21.70;52.83;101883.88;2083817;28;977;-61
2021/09/15 03:40:08;;;;;;;;;;;;;;;21.70;52.32;101890.19;2083934;28;1028;-61
2021/09/15 03:41:08;;;;;;;;;;;;;;;21.72;52.21;101888.34;2083930;28;989;-61
2021/09/15 03:42:08;;;;;;;;;;;;;;;21.81;52.01;101891.72;2083912;28;1041;-61
2021/09/15 03:43:09;;;;;;;;;;;;;;;21.77;52.68;101893.63;2083940;28;776;-61
2021/09/15 03:44:09;;;;;;;;;;;;;;;21.75;52.53;101884.66;2083826;28;918;-61
2021/09/15 03:45:09;;;;;;;;;;;;;;;21.74;52.39;101891.88;2083910;28;898;-60
2021/09/15 03:46:09;;;;;;;;;;;;;;;21.70;52.28;101886.56;2083668;28;977;-61
2021/09/15 03:47:09;;;;;;;;;;;;;;;21.71;52.25;101896.44;2083638;28;1016;-60
2021/09/15 03:48:09;;;;;;;;;;;;;;;21.72;51.86;101891.03;2083935;28;846;-61
2021/09/15 03:49:10;;;;;;;;;;;;;;;21.74;52.29;101886.50;2083787;28;903;-60
2021/09/15 03:50:10;;;;;;;;;;;;;;;21.76;52.45;101892.75;2083904;28;967;-60
2021/09/15 03:51:10;;;;;;;;;;;;;;;21.76;52.64;101894.53;2083839;28;857;-61
2021/09/15 03:52:10;;;;;;;;;;;;;;;21.74;51.71;101891.88;2083161;28;974;-61
2021/09/15 03:53:10;;;;;;;;;;;;;;;21.71;52.35;101894.66;2083842;28;1028;-61
2021/09/15 03:54:11;;;;;;;;;;;;;;;21.69;52.84;101888.41;2083814;28;756;-61
2021/09/15 03:55:11;;;;;;;;;;;;;;;21.66;51.85;101888.47;2083582;28;1903;-60
2021/09/15 03:56:11;;;;;;;;;;;;;;;21.69;52.04;101890.19;2083828;28;816;-61
2021/09/15 03:57:11;;;;;;;;;;;;;;;21.69;51.28;101900.97;2083462;28;1017;-60
2021/09/15 03:58:11;;;;;;;;;;;;;;;21.68;52.04;101897.41;2083686;28;760;-61
2021/09/15 03:59:11;;;;;;;;;;;;;;;21.72;51.87;101888.34;2083718;28;875;-61
2021/09/15 04:00:12;;;;;;;;;;;;;;;21.66;52.80;101891.16;2083508;28;832;-61
2021/09/15 04:01:14;;;;;;;;;;;;;;;21.72;51.35;101892.81;2083804;28;795;-60
2021/09/15 04:02:14;;;;;;;;;;;;;;;21.72;52.31;101891.03;2083808;28;764;-61
2021/09/15 04:03:14;;;;;;;;;;;;;;;22.17;51.27;101898.09;2083449;28;804;-61
2021/09/15 04:04:14;;;;;;;;;;;;;;;22.63;51.87;101889.84;2083748;28;906;-61
2021/09/15 04:05:14;;;;;;;;;;;;;;;22.91;49.34;101889.09;2083742;28;973;-61
2021/09/15 04:06:14;;;;;;;;;;;;;;;23.07;50.85;101889.56;2083560;28;847;-61
2021/09/15 04:07:15;;;;;;;;;;;;;;;23.13;50.21;101884.00;2083752;28;862;-60
2021/09/15 04:08:15;;;;;;;;;;;;;;;23.19;50.66;101878.41;2083703;28;834;-61
2021/09/15 04:09:15;;;;;;;;;;;;;;;23.28;49.68;101888.09;2083641;28;1016;-60
2021/09/15 04:10:16;;;;;;;;;;;;;;;23.35;50.84;101881.59;2083712;28;977;-61
2021/09/15 04:11:16;;;;;;;;;;;;;;;23.44;49.41;101887.66;2083710;28;772;-60
2021/09/15 04:12:16;;;;;;;;;;;;;;;23.53;49.32;101882.91;2083706;28;867;-61
2021/09/15 04:13:16;;;;;;;;;;;;;;;23.56;50.80;101884.63;2083487;28;1122;-60
2021/09/15 04:14:16;;;;;;;;;;;;;;;23.62;49.03;101883.53;2083529;28;850;-61
2021/09/15 04:15:17;;;;;;;;;;;;;;;23.60;50.67;101882.69;2083476;28;1911;-60
2021/09/15 04:16:17;;;;;;;;;;;;;;;23.69;49.98;101880.63;2083686;28;860;-61
2021/09/15 04:17:17;;;;;;;;;;;;;;;23.75;49.95;101878.66;2083622;28;949;-60
2021/09/15 04:18:17;;;;;;;;;;;;;;;23.82;50.87;101875.69;2083607;28;811;-61
2021/09/15 04:19:17;;;;;;;;;;;;;;;23.93;51.31;101879.91;2083666;28;894;-61
2021/09/15 04:20:18;;;;;;;;;;;;;;;23.96;47.98;101871.69;2083426;28;1017;-61
2021/09/15 04:21:18;;;;;;;;;;;;;;;23.98;50.39;101876.13;2083463;28;811;-60
2021/09/15 04:22:20;;;;;;;;;;;;;;;24.08;48.84;101873.13;2083477;28;1082;-61
2021/09/15 04:23:31;;;;;;;;;;;;;;;24.05;49.88;101876.84;2078775;28;1160;-61
2021/09/15 04:31:10;;;;;;;;;;;;;;;24.09;49.00;101875.81;2075388;28;858;-61
2021/09/15 04:31:15;;;;;;;;;;;;;;;24.30;49.55;101884.16;2075440;28;733;-61
2021/09/15 04:32:15;;;;;;;;;;;;;;;24.29;51.55;101882.38;2075431;28;811;-60
2021/09/15 04:33:16;;;;;;;;;;;;;;;24.30;50.70;101873.31;2075244;28;1110;-61
2021/09/15 04:34:16;;;;;;;;;;;;;;;24.33;50.26;101883.19;2075177;28;784;-60
2021/09/15 04:35:16;;;;;;;;;;;;;;;24.36;50.26;101877.66;2075315;28;2043;-61
2021/09/15 04:36:17;;;;;;;;;;;;;;;24.40;49.54;101877.50;2075313;28;835;-61
2021/09/15 04:37:17;;;;;;;;;;;;;;;24.41;49.29;101872.97;2075379;28;1048;-61
2021/09/15 04:38:17;;;;;;;;;;;;;;;24.42;49.71;101877.47;2075341;28;809;-61
2021/09/15 04:39:17;;;;;;;;;;;;;;;24.46;51.55;101878.22;2075321;28;910;-61
2021/09/15 04:40:17;;;;;;;;;;;;;;;24.50;50.17;101874.47;2075273;28;1044;-61
2021/09/15 04:41:18;;;;;;;;;;;;;;;24.43;49.04;101871.97;2075290;28;1320;-61
2021/09/15 04:42:18;;;;;;;;;;;;;;;24.45;50.57;101881.88;2074736;28;1200;-60
2021/09/15 04:43:18;;;;;;;;;;;;;;;24.47;49.04;101875.44;2075401;28;783;-61
2021/09/15 04:44:18;;;;;;;;;;;;;;;24.51;50.73;101876.25;2075142;28;906;-61
2021/09/15 04:45:18;;;;;;;;;;;;;;;24.53;50.05;101879.78;2075282;28;795;-60
2021/09/15 04:46:19;;;;;;;;;;;;;;;24.57;49.41;101879.63;2075254;28;910;-60
2021/09/15 04:47:19;;;;;;;;;;;;;;;24.54;48.50;101889.69;2075004;28;993;-61
2021/09/15 04:48:19;;;;;;;;;;;;;;;24.58;48.21;101886.81;2075136;28;1024;-61
2021/09/15 04:49:19;;;;;;;;;;;;;;;24.57;51.27;101886.88;2075282;28;859;-61
2021/09/15 04:50:19;;;;;;;;;;;;;;;24.50;49.89;101888.91;2075253;28;1048;-61
2021/09/15 04:51:20;;;;;;;;;;;;;;;24.56;50.39;101888.69;2075315;28;985;-61
2021/09/15 04:52:20;;;;;;;;;;;;;;;24.63;50.09;101888.47;2075257;28;791;-61
2021/09/15 04:53:21;;;;;;;;;;;;;;;24.63;48.49;101891.19;2075113;28;894;-61
2021/09/15 04:54:21;;;;;;;;;;;;;;;24.62;47.63;101890.31;2075217;28;800;-60
2021/09/15 04:55:22;;;;;;;;;;;;;;;24.60;49.58;101892.19;2074399;28;1906;-60
2021/09/15 04:56:22;;;;;;;;;;;;;;;24.68;48.40;101897.34;2074641;28;830;-60
2021/09/15 04:57:22;;;;;;;;;;;;;;;24.67;49.24;101898.28;2075245;28;1017;-61
2021/09/15 04:58:22;;;;;;;;;;;;;;;24.65;49.84;101889.31;2075077;28;811;-60
2021/09/15 04:59:23;;;;;;;;;;;;;;;24.66;49.86;101897.41;2075263;28;916;-61
2021/09/15 05:00:23;;;;;;;;;;;;;;;24.65;49.76;101889.31;2074482;28;1295;-60
2021/09/15 05:01:23;;;;;;;;;;;;;;;24.70;48.78;101896.38;2074295;28;906;-61
2021/09/15 05:02:24;;;;;;;;;;;;;;;24.69;46.74;101889.19;2074665;28;851;-60
2021/09/15 05:03:24;;;;;;;;;;;;;;;24.73;48.66;101891.81;2074573;28;778;-61
2021/09/15 05:04:24;;;;;;;;;;;;;;;24.76;49.40;101894.38;2074589;28;768;-60
2021/09/15 05:05:24;;;;;;;;;;;;;;;24.81;47.72;101892.41;2075226;28;1083;-61
2021/09/15 05:06:24;;;;;;;;;;;;;;;24.79;49.33;101897.00;2074842;28;814;-60
2021/09/15 05:07:25;;;;;;;;;;;;;;;24.77;48.95;101888.94;2075101;28;981;-61
2021/09/15 05:08:25;;;;;;;;;;;;;;;24.76;47.39;101898.00;2075033;28;811;-60
2021/09/15 05:09:25;;;;;;;;;;;;;;;24.82;47.50;101900.50;2074792;28;875;-61
2021/09/15 05:10:25;;;;;;;;;;;;;;;24.78;48.81;101896.13;2075045;28;808;-60
2021/09/15 05:11:25;;;;;;;;;;;;;;;24.79;47.93;101894.28;2075130;28;843;-61
2021/09/15 05:12:26;;;;;;;;;;;;;;;24.77;46.56;101897.06;2075096;28;863;-60
2021/09/15 05:13:26;;;;;;;;;;;;;;;24.72;47.44;101901.75;2075179;28;969;-61
2021/09/15 05:14:26;;;;;;;;;;;;;;;24.84;49.90;101900.44;2074923;28;796;-60
2021/09/15 05:15:26;;;;;;;;;;;;;;;24.83;50.04;101898.66;2075065;28;1955;-61
2021/09/15 05:16:27;;;;;;;;;;;;;;;24.79;47.66;101902.41;2075124;28;1024;-60
2021/09/15 05:17:27;;;;;;;;;;;;;;;24.85;49.59;101908.53;2075031;28;823;-61
2021/09/15 05:18:27;;;;;;;;;;;;;;;24.84;50.16;101905.84;2075117;28;993;-60
2021/09/15 05:19:27;;;;;;;;;;;;;;;24.84;48.37;101909.47;2075078;28;784;-61
2021/09/15 05:20:27;;;;;;;;;;;;;;;24.86;47.05;101910.28;2075120;28;989;-60
2021/09/15 05:21:28;;;;;;;;;;;;;;;24.86;49.53;101909.38;2075186;28;784;-61
2021/09/15 05:22:28;;;;;;;;;;;;;;;24.89;48.97;101908.41;2074756;28;778;-60